EZY241 EGGD-EGNT
Flight info
| Callsign | EZY241 |
|---|---|
| Flight time | 0h 45m |
| Altitude | 26000 |
| Route | BCN P69 DIZIM DCT KISWO/N0371F270 DCT AVTIC DCT ANJAK/N0376F280 N38 NOKIN UP17 POL |
| Aircraft | A320/M-SDE2E3FGHIJ1RWXYZ/LB1 |
Departure
| Time | 2026-05-07 19:57 |
|---|---|
| Airport | Bristol Airport (EGGD) |
Arrival
| Time | 2026-05-07 20:43 |
|---|---|
| Airport | Newcastle International Airport (EGNT) |
| Time | Latitude | Longitude | Altitude | Speed | Heading |
|---|---|---|---|---|---|
| 2026-05-07 19:19 | 51.38564 | -2.70912 | 619 ft | 0 kts | 266° |
| 2026-05-07 19:49 | 51.38565 | -2.70897 | 610 ft | 3 kts | 269° |
| 2026-05-07 19:49 | 51.38565 | -2.70863 | 625 ft | 3 kts | 261° |
| 2026-05-07 19:50 | 51.38572 | -2.70842 | 613 ft | 3 kts | 192° |
| 2026-05-07 19:50 | 51.38593 | -2.70840 | 606 ft | 2 kts | 176° |
| 2026-05-07 19:50 | 51.38583 | -2.70839 | 607 ft | 3 kts | 176° |
| 2026-05-07 19:50 | 51.38561 | -2.70837 | 608 ft | 3 kts | 176° |
| 2026-05-07 19:51 | 51.38538 | -2.70834 | 613 ft | 3 kts | 176° |
| 2026-05-07 19:51 | 51.38517 | -2.70832 | 610 ft | 1 kts | 176° |
| 2026-05-07 19:53 | 51.38514 | -2.70832 | 611 ft | 2 kts | 176° |
| 2026-05-07 19:54 | 51.38498 | -2.70831 | 617 ft | 2 kts | 176° |
| 2026-05-07 19:54 | 51.38485 | -2.70827 | 615 ft | 1 kts | 160° |
| 2026-05-07 19:54 | 51.38473 | -2.70808 | 627 ft | 4 kts | 130° |
| 2026-05-07 19:54 | 51.38470 | -2.70741 | 611 ft | 8 kts | 88° |
| 2026-05-07 19:55 | 51.38473 | -2.70649 | 610 ft | 8 kts | 86° |
| 2026-05-07 19:55 | 51.38473 | -2.70567 | 609 ft | 8 kts | 104° |
| 2026-05-07 19:55 | 51.38420 | -2.70510 | 613 ft | 11 kts | 167° |
| 2026-05-07 19:55 | 51.38361 | -2.70488 | 615 ft | 5 kts | 167° |
| 2026-05-07 19:56 | 51.38327 | -2.70492 | 615 ft | 6 kts | 213° |
| 2026-05-07 19:56 | 51.38320 | -2.70571 | 611 ft | 12 kts | 268° |
| 2026-05-07 19:56 | 51.38302 | -2.71029 | 602 ft | 81 kts | 266° |
| 2026-05-07 19:56 | 51.38254 | -2.72308 | 630 ft | 145 kts | 266° |
| 2026-05-07 19:57 | 51.38187 | -2.74101 | 1058 ft | 163 kts | 267° |
| 2026-05-07 19:57 | 51.38124 | -2.75916 | 1832 ft | 169 kts | 264° |
| 2026-05-07 19:57 | 51.38052 | -2.77919 | 2158 ft | 191 kts | 263° |
| 2026-05-07 19:57 | 51.37964 | -2.80173 | 2491 ft | 217 kts | 263° |
| 2026-05-07 19:58 | 51.37861 | -2.82727 | 2956 ft | 242 kts | 264° |
| 2026-05-07 19:58 | 51.37770 | -2.85526 | 3633 ft | 257 kts | 265° |
| 2026-05-07 19:58 | 51.37935 | -2.88405 | 4623 ft | 264 kts | 283° |
| 2026-05-07 19:58 | 51.38654 | -2.91136 | 5590 ft | 271 kts | 298° |
| 2026-05-07 19:59 | 51.39806 | -2.93554 | 6567 ft | 276 kts | 313° |
| 2026-05-07 19:59 | 51.41338 | -2.95443 | 7484 ft | 281 kts | 327° |
| 2026-05-07 19:59 | 51.43025 | -2.97054 | 8458 ft | 284 kts | 328° |
| 2026-05-07 19:59 | 51.44742 | -2.98641 | 9424 ft | 286 kts | 328° |
| 2026-05-07 20:00 | 51.46468 | -3.00275 | 10268 ft | 294 kts | 327° |
| 2026-05-07 20:00 | 51.48283 | -3.02042 | 10612 ft | 316 kts | 326° |
| 2026-05-07 20:00 | 51.50181 | -3.03925 | 11289 ft | 324 kts | 326° |
| 2026-05-07 20:00 | 51.52112 | -3.05853 | 12089 ft | 329 kts | 326° |
| 2026-05-07 20:01 | 51.54069 | -3.07813 | 12911 ft | 334 kts | 326° |
| 2026-05-07 20:01 | 51.56056 | -3.09804 | 13696 ft | 339 kts | 326° |
| 2026-05-07 20:01 | 51.58072 | -3.11825 | 14404 ft | 344 kts | 326° |
| 2026-05-07 20:01 | 51.60091 | -3.13836 | 15112 ft | 331 kts | 326° |
| 2026-05-07 20:02 | 51.62072 | -3.15802 | 15611 ft | 342 kts | 326° |
| 2026-05-07 20:02 | 51.64126 | -3.17855 | 16131 ft | 351 kts | 326° |
| 2026-05-07 20:02 | 51.66212 | -3.19944 | 16799 ft | 355 kts | 326° |
| 2026-05-07 20:02 | 51.68293 | -3.22030 | 17467 ft | 359 kts | 326° |
| 2026-05-07 20:03 | 51.70508 | -3.23945 | 18143 ft | 365 kts | 336° |
| 2026-05-07 20:03 | 51.72961 | -3.25129 | 18747 ft | 371 kts | 348° |
| 2026-05-07 20:03 | 51.75551 | -3.25454 | 19339 ft | 377 kts | 0° |
| 2026-05-07 20:03 | 51.78171 | -3.24968 | 19921 ft | 382 kts | 7° |
| 2026-05-07 20:04 | 51.80809 | -3.24310 | 20512 ft | 385 kts | 7° |
| 2026-05-07 20:04 | 51.83465 | -3.23648 | 21088 ft | 388 kts | 7° |
| 2026-05-07 20:04 | 51.86152 | -3.22982 | 21652 ft | 392 kts | 7° |
| 2026-05-07 20:04 | 51.88858 | -3.22315 | 22209 ft | 395 kts | 7° |
| 2026-05-07 20:05 | 51.91587 | -3.21642 | 22754 ft | 399 kts | 7° |
| 2026-05-07 20:05 | 51.94340 | -3.20962 | 23284 ft | 402 kts | 7° |
| 2026-05-07 20:05 | 51.97119 | -3.20273 | 23790 ft | 405 kts | 7° |
| 2026-05-07 20:05 | 51.99918 | -3.19576 | 24247 ft | 408 kts | 7° |
| 2026-05-07 20:06 | 52.02733 | -3.18872 | 24711 ft | 411 kts | 7° |
| 2026-05-07 20:06 | 52.05578 | -3.18430 | 25142 ft | 412 kts | 1° |
| 2026-05-07 20:06 | 52.08448 | -3.18217 | 25584 ft | 414 kts | 1° |
| 2026-05-07 20:06 | 52.11339 | -3.17998 | 26024 ft | 417 kts | 1° |
| 2026-05-07 20:07 | 52.14245 | -3.17775 | 26457 ft | 419 kts | 1° |
| 2026-05-07 20:07 | 52.17170 | -3.17548 | 26880 ft | 422 kts | 1° |
| 2026-05-07 20:07 | 52.20113 | -3.17321 | 27303 ft | 425 kts | 1° |
| 2026-05-07 20:07 | 52.23070 | -3.17096 | 27687 ft | 427 kts | 1° |
| 2026-05-07 20:08 | 52.26041 | -3.16871 | 27940 ft | 428 kts | 0° |
| 2026-05-07 20:08 | 52.28997 | -3.16642 | 28010 ft | 419 kts | 1° |
| 2026-05-07 20:08 | 52.31853 | -3.16417 | 28016 ft | 405 kts | 0° |
| 2026-05-07 20:08 | 52.34649 | -3.16198 | 28016 ft | 401 kts | 0° |
| 2026-05-07 20:09 | 52.40199 | -3.15769 | 28016 ft | 399 kts | 0° |
| 2026-05-07 20:10 | 52.48511 | -3.15126 | 28017 ft | 398 kts | 0° |
| 2026-05-07 20:10 | 52.54044 | -3.14696 | 28012 ft | 398 kts | 0° |
| 2026-05-07 20:11 | 52.59535 | -3.14262 | 28008 ft | 397 kts | 0° |
| 2026-05-07 20:11 | 52.65056 | -3.13827 | 28003 ft | 397 kts | 0° |
| 2026-05-07 20:12 | 52.70568 | -3.13202 | 28000 ft | 399 kts | 8° |
| 2026-05-07 20:12 | 52.73259 | -3.12042 | 28009 ft | 401 kts | 19° |
| 2026-05-07 20:12 | 52.75811 | -3.10182 | 28005 ft | 402 kts | 24° |
| 2026-05-07 20:13 | 52.80857 | -3.06216 | 27999 ft | 402 kts | 24° |
| 2026-05-07 20:13 | 52.83384 | -3.04243 | 27996 ft | 402 kts | 24° |
| 2026-05-07 20:13 | 52.85909 | -3.02270 | 27990 ft | 402 kts | 24° |
| 2026-05-07 20:13 | 52.88437 | -3.00293 | 27996 ft | 401 kts | 24° |
| 2026-05-07 20:14 | 52.91004 | -2.98500 | 28000 ft | 400 kts | 18° |
| 2026-05-07 20:14 | 52.95383 | -2.95847 | 28005 ft | 400 kts | 18° |
| 2026-05-07 20:15 | 53.00604 | -2.92659 | 28012 ft | 400 kts | 19° |
| 2026-05-07 20:15 | 53.05827 | -2.89453 | 28011 ft | 400 kts | 20° |
| 2026-05-07 20:16 | 53.10662 | -2.84876 | 28011 ft | 401 kts | 34° |
| 2026-05-07 20:16 | 53.15256 | -2.79583 | 27992 ft | 402 kts | 34° |
| 2026-05-07 20:16 | 53.17525 | -2.76974 | 27993 ft | 402 kts | 34° |
| 2026-05-07 20:17 | 53.19856 | -2.74289 | 27995 ft | 402 kts | 34° |
| 2026-05-07 20:17 | 53.22125 | -2.71673 | 27998 ft | 402 kts | 34° |
| 2026-05-07 20:17 | 53.24421 | -2.69021 | 28007 ft | 402 kts | 34° |
| 2026-05-07 20:18 | 53.29026 | -2.63708 | 28007 ft | 402 kts | 34° |
| 2026-05-07 20:18 | 53.33636 | -2.58402 | 28008 ft | 402 kts | 34° |
| 2026-05-07 20:18 | 53.35939 | -2.55744 | 28000 ft | 402 kts | 35° |
| 2026-05-07 20:19 | 53.38234 | -2.53084 | 28006 ft | 402 kts | 35° |
| 2026-05-07 20:19 | 53.42826 | -2.47749 | 28012 ft | 401 kts | 35° |
| 2026-05-07 20:20 | 53.47409 | -2.42422 | 28007 ft | 401 kts | 35° |
| 2026-05-07 20:20 | 53.51983 | -2.37051 | 28007 ft | 401 kts | 36° |
| 2026-05-07 20:21 | 53.56534 | -2.31649 | 28006 ft | 400 kts | 36° |
| 2026-05-07 20:21 | 53.61082 | -2.26235 | 28006 ft | 400 kts | 36° |
| 2026-05-07 20:22 | 53.65628 | -2.20823 | 28005 ft | 400 kts | 36° |
| 2026-05-07 20:22 | 53.70172 | -2.15394 | 28003 ft | 400 kts | 36° |
| 2026-05-07 20:23 | 53.74836 | -2.10264 | 27401 ft | 401 kts | 25° |
| 2026-05-07 20:23 | 53.77430 | -2.08542 | 27579 ft | 401 kts | 19° |
| 2026-05-07 20:23 | 53.80036 | -2.06998 | 27754 ft | 402 kts | 19° |
| 2026-05-07 20:23 | 53.82713 | -2.05420 | 28701 ft | 405 kts | 18° |
| 2026-05-07 20:24 | 53.85398 | -2.03840 | 28330 ft | 413 kts | 18° |
| 2026-05-07 20:24 | 53.88089 | -2.02248 | 27567 ft | 415 kts | 18° |
| 2026-05-07 20:24 | 53.90805 | -2.00633 | 26952 ft | 413 kts | 18° |
| 2026-05-07 20:24 | 53.93507 | -1.99025 | 26401 ft | 410 kts | 18° |
| 2026-05-07 20:25 | 53.96185 | -1.97431 | 25868 ft | 407 kts | 18° |
| 2026-05-07 20:25 | 53.98844 | -1.95845 | 25352 ft | 404 kts | 18° |
| 2026-05-07 20:25 | 54.01488 | -1.94266 | 24826 ft | 401 kts | 18° |
| 2026-05-07 20:25 | 54.04113 | -1.92699 | 24315 ft | 399 kts | 18° |
| 2026-05-07 20:26 | 54.06720 | -1.91142 | 23824 ft | 396 kts | 18° |
| 2026-05-07 20:26 | 54.09310 | -1.89591 | 23302 ft | 393 kts | 18° |
| 2026-05-07 20:26 | 54.11876 | -1.88049 | 22762 ft | 390 kts | 18° |
| 2026-05-07 20:26 | 54.14446 | -1.86647 | 22243 ft | 386 kts | 11° |
| 2026-05-07 20:27 | 54.17074 | -1.85803 | 21739 ft | 383 kts | 9° |
| 2026-05-07 20:27 | 54.19682 | -1.84991 | 21153 ft | 377 kts | 9° |
| 2026-05-07 20:27 | 54.22253 | -1.84186 | 20303 ft | 374 kts | 9° |
| 2026-05-07 20:27 | 54.24797 | -1.83386 | 19476 ft | 371 kts | 9° |
| 2026-05-07 20:28 | 54.27325 | -1.82591 | 18673 ft | 368 kts | 9° |
| 2026-05-07 20:28 | 54.29830 | -1.81806 | 17852 ft | 364 kts | 9° |
| 2026-05-07 20:28 | 54.32288 | -1.81035 | 17346 ft | 352 kts | 9° |
| 2026-05-07 20:28 | 54.34645 | -1.80289 | 16960 ft | 337 kts | 9° |
| 2026-05-07 20:29 | 54.36908 | -1.79569 | 16584 ft | 325 kts | 9° |
| 2026-05-07 20:29 | 54.39130 | -1.78866 | 16227 ft | 324 kts | 9° |
| 2026-05-07 20:29 | 54.41350 | -1.78168 | 15792 ft | 327 kts | 9° |
| 2026-05-07 20:29 | 54.43637 | -1.77454 | 15040 ft | 340 kts | 9° |
| 2026-05-07 20:30 | 54.45964 | -1.76725 | 14339 ft | 339 kts | 9° |
| 2026-05-07 20:30 | 54.48294 | -1.75987 | 13622 ft | 342 kts | 9° |
| 2026-05-07 20:30 | 54.50639 | -1.75241 | 12874 ft | 341 kts | 9° |
| 2026-05-07 20:30 | 54.52951 | -1.74501 | 12210 ft | 337 kts | 9° |
| 2026-05-07 20:31 | 54.55244 | -1.73768 | 11614 ft | 332 kts | 9° |
| 2026-05-07 20:31 | 54.57491 | -1.73050 | 11048 ft | 325 kts | 8° |
| 2026-05-07 20:31 | 54.59698 | -1.72347 | 10505 ft | 319 kts | 8° |
| 2026-05-07 20:31 | 54.61861 | -1.71659 | 9973 ft | 313 kts | 8° |
| 2026-05-07 20:32 | 54.63968 | -1.70987 | 9516 ft | 304 kts | 8° |
| 2026-05-07 20:32 | 54.66008 | -1.70333 | 9227 ft | 289 kts | 8° |
| 2026-05-07 20:32 | 54.67924 | -1.69715 | 9086 ft | 272 kts | 8° |
| 2026-05-07 20:32 | 54.69756 | -1.69126 | 9031 ft | 266 kts | 8° |
| 2026-05-07 20:33 | 54.71612 | -1.68245 | 9041 ft | 290 kts | 21° |
| 2026-05-07 20:33 | 54.73405 | -1.66790 | 8928 ft | 280 kts | 25° |
| 2026-05-07 20:33 | 54.75141 | -1.65294 | 8623 ft | 277 kts | 25° |
| 2026-05-07 20:33 | 54.76864 | -1.63788 | 8153 ft | 281 kts | 25° |
| 2026-05-07 20:34 | 54.78617 | -1.62259 | 7686 ft | 283 kts | 26° |
| 2026-05-07 20:34 | 54.80371 | -1.60746 | 7369 ft | 280 kts | 25° |
| 2026-05-07 20:34 | 54.82107 | -1.59257 | 7023 ft | 277 kts | 26° |
| 2026-05-07 20:34 | 54.83809 | -1.57807 | 6657 ft | 276 kts | 25° |
| 2026-05-07 20:35 | 54.85530 | -1.56349 | 6303 ft | 275 kts | 25° |
| 2026-05-07 20:35 | 54.87246 | -1.54896 | 5918 ft | 274 kts | 25° |
| 2026-05-07 20:35 | 54.88953 | -1.53447 | 5536 ft | 273 kts | 25° |
| 2026-05-07 20:35 | 54.90622 | -1.51896 | 5154 ft | 272 kts | 30° |
| 2026-05-07 20:36 | 54.92249 | -1.50234 | 4783 ft | 271 kts | 30° |
| 2026-05-07 20:36 | 54.93865 | -1.48564 | 4377 ft | 270 kts | 31° |
| 2026-05-07 20:36 | 54.95482 | -1.46913 | 3990 ft | 269 kts | 30° |
| 2026-05-07 20:36 | 54.97094 | -1.45258 | 3601 ft | 269 kts | 31° |
| 2026-05-07 20:37 | 54.98704 | -1.43614 | 3218 ft | 268 kts | 30° |
| 2026-05-07 20:37 | 55.00291 | -1.42000 | 3036 ft | 258 kts | 31° |
| 2026-05-07 20:37 | 55.01818 | -1.40457 | 2875 ft | 250 kts | 30° |
| 2026-05-07 20:37 | 55.03398 | -1.39315 | 2605 ft | 244 kts | 5° |
| 2026-05-07 20:38 | 55.05027 | -1.39537 | 2461 ft | 231 kts | 344° |
| 2026-05-07 20:38 | 55.06563 | -1.40208 | 2326 ft | 223 kts | 341° |
| 2026-05-07 20:38 | 55.08002 | -1.41023 | 2247 ft | 212 kts | 326° |
| 2026-05-07 20:38 | 55.09014 | -1.42683 | 2180 ft | 190 kts | 293° |
| 2026-05-07 20:39 | 55.09454 | -1.44712 | 2096 ft | 170 kts | 273° |
| 2026-05-07 20:39 | 55.09495 | -1.46680 | 2015 ft | 156 kts | 255° |
| 2026-05-07 20:39 | 55.09210 | -1.48444 | 2007 ft | 148 kts | 239° |
| 2026-05-07 20:39 | 55.08782 | -1.50067 | 2007 ft | 147 kts | 239° |
| 2026-05-07 20:40 | 55.08353 | -1.51700 | 2008 ft | 149 kts | 238° |
| 2026-05-07 20:40 | 55.07920 | -1.53347 | 1954 ft | 150 kts | 239° |
| 2026-05-07 20:40 | 55.07483 | -1.55005 | 1825 ft | 149 kts | 239° |
| 2026-05-07 20:40 | 55.07053 | -1.56640 | 1647 ft | 148 kts | 239° |
| 2026-05-07 20:41 | 55.06631 | -1.58239 | 1460 ft | 145 kts | 238° |
| 2026-05-07 20:41 | 55.06229 | -1.59772 | 1286 ft | 134 kts | 239° |
| 2026-05-07 20:41 | 55.05847 | -1.61219 | 1072 ft | 129 kts | 238° |
| 2026-05-07 20:41 | 55.05472 | -1.62635 | 902 ft | 129 kts | 237° |
| 2026-05-07 20:42 | 55.05092 | -1.64052 | 721 ft | 129 kts | 238° |
| 2026-05-07 20:42 | 55.04712 | -1.65496 | 537 ft | 132 kts | 241° |
| 2026-05-07 20:42 | 55.04331 | -1.66947 | 357 ft | 132 kts | 241° |
| 2026-05-07 20:42 | 55.03958 | -1.68371 | 251 ft | 120 kts | 243° |
| 2026-05-07 20:43 | 55.03703 | -1.69315 | 255 ft | 44 kts | 245° |
| 2026-05-07 20:43 | 55.03608 | -1.69673 | 259 ft | 24 kts | 245° |
| 2026-05-07 20:43 | 55.03582 | -1.69909 | 261 ft | 20 kts | 275° |
| 2026-05-07 20:43 | 55.03592 | -1.70154 | 264 ft | 20 kts | 276° |
| 2026-05-07 20:44 | 55.03602 | -1.70363 | 267 ft | 12 kts | 273° |
| 2026-05-07 20:44 | 55.03597 | -1.70504 | 267 ft | 10 kts | 264° |
| 2026-05-07 20:44 | 55.03591 | -1.70621 | 267 ft | 9 kts | 271° |
| 2026-05-07 20:44 | 55.03595 | -1.70724 | 267 ft | 8 kts | 274° |
| 2026-05-07 20:45 | 55.03603 | -1.70779 | 267 ft | 3 kts | 313° |
| 2026-05-07 20:45 | 55.03620 | -1.70784 | 267 ft | 3 kts | 356° |
| 2026-05-07 20:45 | 55.03649 | -1.70781 | 267 ft | 4 kts | 4° |
| 2026-05-07 20:45 | 55.03663 | -1.70779 | 267 ft | 1 kts | 4° |
| 2026-05-07 20:46 | 55.03664 | -1.70779 | 267 ft | 0 kts | 4° |